createdAt,value
2019-02-11T00:01:43.138Z,42.43
2019-02-11T00:04:12.787Z,47.10
2019-02-11T00:06:42.498Z,42.13
2019-02-11T00:09:12.230Z,41.90
2019-02-11T00:11:41.874Z,40.47
2019-02-11T00:14:11.513Z,44.03
2019-02-11T00:16:41.174Z,42.40
2019-02-11T00:22:31.609Z,39.37
2019-02-11T00:25:01.230Z,42.10
2019-02-11T00:27:31.418Z,42.10
2019-02-11T00:30:01.109Z,43.47
2019-02-11T00:32:30.766Z,43.60
2019-02-11T00:35:00.454Z,40.00
2019-02-11T00:37:30.114Z,41.63
2019-02-11T00:39:59.755Z,42.10
2019-02-11T00:42:29.457Z,42.53
2019-02-11T00:44:59.097Z,39.57
2019-02-11T00:47:28.846Z,36.70
2019-02-11T00:49:58.529Z,40.13
2019-02-11T00:52:28.206Z,39.67
2019-02-11T00:54:57.880Z,39.10
2019-02-11T00:57:27.609Z,38.33
2019-02-11T00:59:57.362Z,41.33
2019-02-11T01:02:27.033Z,36.57
2019-02-11T01:04:56.669Z,41.83
2019-02-11T01:07:26.386Z,38.63
2019-02-11T01:09:56.082Z,37.53
2019-02-11T01:12:25.789Z,37.03
2019-02-11T01:14:55.548Z,41.80
2019-02-11T01:17:25.282Z,35.10
2019-02-11T01:19:54.958Z,37.27
2019-02-11T01:22:24.661Z,36.73
2019-02-11T01:24:54.380Z,39.03
2019-02-11T01:27:24.023Z,38.07
2019-02-11T01:29:53.650Z,39.07
2019-02-11T01:32:23.373Z,40.37
2019-02-11T01:34:53.106Z,38.30
2019-02-11T01:37:22.790Z,38.30
2019-02-11T01:39:52.463Z,33.87
2019-02-11T01:42:22.111Z,39.27
2019-02-11T01:44:51.840Z,38.37
2019-02-11T01:47:21.522Z,37.03
2019-02-11T01:49:51.197Z,38.43
2019-02-11T01:52:21.350Z,36.53
2019-02-11T01:54:50.990Z,39.53
2019-02-11T01:57:20.691Z,37.87
2019-02-11T01:59:50.406Z,37.50
2019-02-11T02:02:20.515Z,38.23
2019-02-11T02:04:50.210Z,38.47
2019-02-11T02:07:19.862Z,39.53
2019-02-11T02:09:49.557Z,39.33
2019-02-11T02:12:19.268Z,39.70
2019-02-11T02:14:48.942Z,36.10
2019-02-11T02:17:19.043Z,36.33
2019-02-11T02:19:48.791Z,42.30
2019-02-11T02:22:18.486Z,39.47
2019-02-11T02:24:51.333Z,38.57
2019-02-11T02:27:21.012Z,41.07
2019-02-11T02:29:50.694Z,42.53
2019-02-11T02:32:20.350Z,42.57
2019-02-11T02:34:49.990Z,41.93
2019-02-11T02:37:19.659Z,37.70
2019-02-11T02:39:49.406Z,42.53
2019-02-11T02:42:19.174Z,42.63
2019-02-11T02:44:48.837Z,41.33
2019-02-11T02:47:18.590Z,44.17
2019-02-11T02:49:48.266Z,46.30
2019-02-11T02:52:17.902Z,42.83
2019-02-11T02:54:47.629Z,42.37
2019-02-11T02:57:17.307Z,43.20
2019-02-11T02:59:47.498Z,47.10
2019-02-11T03:02:17.138Z,46.77
2019-02-11T03:04:46.842Z,42.27
2019-02-11T03:07:16.492Z,42.20
2019-02-11T03:09:46.144Z,42.83
2019-02-11T03:12:15.850Z,46.77
2019-02-11T03:14:45.531Z,45.73
2019-02-11T03:17:15.206Z,48.87
2019-02-11T03:19:44.913Z,47.63
2019-02-11T03:22:14.551Z,50.73
2019-02-11T03:24:44.598Z,44.73
2019-02-11T03:27:14.609Z,44.00
2019-02-11T03:29:44.286Z,46.27
2019-02-11T03:32:14.061Z,44.47
2019-02-11T03:34:43.728Z,50.17
2019-02-11T03:37:13.418Z,49.90
2019-02-11T03:39:43.114Z,43.00
2019-02-11T03:42:12.766Z,50.20
2019-02-11T03:44:42.408Z,49.03
2019-02-11T03:47:12.573Z,52.00
2019-02-11T03:49:42.210Z,52.43
2019-02-11T03:52:11.893Z,47.03
2019-02-11T03:54:41.949Z,48.73
2019-02-11T03:57:11.608Z,48.13
2019-02-11T03:59:41.320Z,53.37
2019-02-11T04:02:10.983Z,59.80
2019-02-11T04:04:40.718Z,59.73
2019-02-11T04:07:10.362Z,59.37
2019-02-11T04:09:40.034Z,57.03
2019-02-11T04:12:09.797Z,62.27
2019-02-11T04:14:39.494Z,74.00
2019-02-11T04:17:09.222Z,89.27
2019-02-11T04:19:38.905Z,110.53
2019-02-11T04:22:09.755Z,111.70
2019-02-11T04:24:39.494Z,102.23
2019-02-11T04:27:09.167Z,104.07
2019-02-11T04:29:38.873Z,114.20
2019-02-11T04:32:08.610Z,99.37
2019-02-11T04:34:38.332Z,91.70
2019-02-11T04:37:08.303Z,77.17
2019-02-11T04:39:38.012Z,70.10
2019-02-11T04:42:07.644Z,68.23
2019-02-11T04:44:37.350Z,66.33
2019-02-11T04:47:06.980Z,66.67
2019-02-11T04:49:36.646Z,55.40
2019-02-11T04:52:06.301Z,53.33
2019-02-11T04:54:36.324Z,49.77
2019-02-11T04:57:05.974Z,53.50
2019-02-11T04:59:35.702Z,50.67
2019-02-11T05:02:05.342Z,48.87
2019-02-11T05:04:34.991Z,45.63
2019-02-11T05:07:04.759Z,53.70
2019-02-11T05:09:34.441Z,51.17
2019-02-11T05:12:04.078Z,54.77
2019-02-11T05:14:43.224Z,55.13
2019-02-11T05:17:05.390Z,50.83
2019-02-11T05:19:35.043Z,51.00
2019-02-11T05:22:04.739Z,52.13
2019-02-11T05:24:34.465Z,46.60
2019-02-11T05:27:04.112Z,46.33
2019-02-11T05:29:33.790Z,49.43
2019-02-11T05:32:03.487Z,49.63
2019-02-11T05:34:33.129Z,50.10
2019-02-11T05:37:02.759Z,45.23
2019-02-11T05:39:32.496Z,50.87
2019-02-11T05:42:02.126Z,48.73
2019-02-11T05:44:31.802Z,49.97
2019-02-11T05:47:01.526Z,50.17
2019-02-11T05:49:31.205Z,45.37
2019-02-11T05:52:00.944Z,46.30
2019-02-11T05:54:30.625Z,49.53
2019-02-11T05:57:00.319Z,46.53
2019-02-11T05:59:30.073Z,53.87
2019-02-11T06:01:59.831Z,51.53
2019-02-11T06:04:29.528Z,51.47
2019-02-11T06:06:59.212Z,47.93
2019-02-11T06:09:28.929Z,51.33
2019-02-11T06:11:58.569Z,54.67
2019-02-11T06:14:28.289Z,48.57
2019-02-11T06:16:58.044Z,45.33
2019-02-11T06:19:27.722Z,50.37
2019-02-11T06:21:57.408Z,47.10
2019-02-11T06:24:27.281Z,49.33
2019-02-11T06:26:56.944Z,54.80
2019-02-11T06:29:26.630Z,54.43
2019-02-11T06:31:56.378Z,58.57
2019-02-11T06:34:26.057Z,51.03
2019-02-11T06:36:55.833Z,61.80
2019-02-11T06:39:25.551Z,49.47
2019-02-11T06:41:55.279Z,45.30
2019-02-11T06:44:24.978Z,45.83
2019-02-11T06:46:54.658Z,48.00
2019-02-11T06:49:25.361Z,46.07
2019-02-11T06:51:57.681Z,42.27
2019-02-11T06:54:27.377Z,42.07
2019-02-11T06:56:57.055Z,41.00
2019-02-11T06:59:26.773Z,48.57
2019-02-11T07:01:56.454Z,40.30
2019-02-11T07:04:26.980Z,40.20
2019-02-11T07:06:56.651Z,36.90
2019-02-11T07:09:26.383Z,47.37
2019-02-11T07:11:56.088Z,47.60
2019-02-11T07:14:25.847Z,41.93
2019-02-11T07:16:55.543Z,36.87
2019-02-11T07:19:25.264Z,40.30
2019-02-11T07:21:54.919Z,35.83
2019-02-11T07:24:25.257Z,30.90
2019-02-11T07:26:54.957Z,27.83
2019-02-11T07:29:24.583Z,29.00
2019-02-11T07:31:54.298Z,31.60
2019-02-11T07:34:24.002Z,34.33
2019-02-11T07:36:53.682Z,32.93
2019-02-11T07:39:25.458Z,25.97
2019-02-11T07:42:12.351Z,29.17
2019-02-11T07:44:48.838Z,24.87
2019-02-11T07:47:18.514Z,23.37
2019-02-11T07:49:48.163Z,24.87
2019-02-11T07:52:17.863Z,20.10
2019-02-11T07:54:47.602Z,25.77
2019-02-11T07:57:17.280Z,22.87
2019-02-11T07:59:49.190Z,23.73
2019-02-11T08:02:20.319Z,23.13
2019-02-11T08:04:50.032Z,23.90
2019-02-11T08:07:19.710Z,18.47
2019-02-11T08:09:49.410Z,20.83
2019-02-11T08:12:19.046Z,19.67
2019-02-11T08:14:48.744Z,19.57
2019-02-11T08:17:18.418Z,20.83
2019-02-11T08:19:49.038Z,19.03
2019-02-11T08:22:18.746Z,19.17
2019-02-11T08:24:49.017Z,22.77
2019-02-11T08:27:18.758Z,18.33
2019-02-11T08:29:48.438Z,18.43
2019-02-11T08:32:18.141Z,20.27
2019-02-11T08:34:47.843Z,20.03
2019-02-11T08:37:17.591Z,25.03
2019-02-11T08:39:47.271Z,21.30
2019-02-11T08:42:16.950Z,17.57
2019-02-11T08:44:46.701Z,17.43
2019-02-11T08:47:16.708Z,17.73
2019-02-11T08:49:46.430Z,14.40
2019-02-11T08:52:16.127Z,18.00
2019-02-11T08:54:45.836Z,19.03
2019-02-11T08:57:15.519Z,15.10
2019-02-11T08:59:45.180Z,16.27
2019-02-11T09:02:14.810Z,13.97
2019-02-11T09:04:44.599Z,14.77
2019-02-11T09:07:14.739Z,16.30
2019-02-11T09:09:44.395Z,15.73
2019-02-11T09:12:14.078Z,14.43
2019-02-11T09:14:43.773Z,15.60
2019-02-11T09:17:13.416Z,15.13
2019-02-11T09:19:43.086Z,14.50
2019-02-11T09:22:13.097Z,13.97
2019-02-11T09:24:42.778Z,10.97
2019-02-11T09:27:12.422Z,13.03
2019-02-11T09:29:42.078Z,12.60
2019-02-11T09:32:11.739Z,13.20
2019-02-11T09:34:41.518Z,13.93
2019-02-11T09:37:11.218Z,17.23
2019-02-11T09:39:40.850Z,17.53
2019-02-11T09:42:10.544Z,13.77
2019-02-11T09:44:40.282Z,15.97
2019-02-11T09:47:09.965Z,12.57
2019-02-11T09:49:39.683Z,15.73
2019-02-11T09:52:09.368Z,11.63
2019-02-11T09:54:38.998Z,11.80
2019-02-11T09:57:11.449Z,11.00
2019-02-11T09:59:41.077Z,11.10
2019-02-11T10:02:10.754Z,12.03
2019-02-11T10:04:40.448Z,13.77
2019-02-11T10:07:10.142Z,11.90
2019-02-11T10:09:39.802Z,15.13
2019-02-11T10:12:11.525Z,15.07
2019-02-11T10:14:41.203Z,12.63
2019-02-11T10:17:10.869Z,18.53
2019-02-11T10:19:40.532Z,13.67
2019-02-11T10:22:10.222Z,9.93
2019-02-11T10:24:39.963Z,13.77
2019-02-11T10:27:09.690Z,11.73
2019-02-11T10:29:39.375Z,9.60
2019-02-11T10:32:09.211Z,8.40
2019-02-11T10:34:38.890Z,8.60
2019-02-11T10:37:08.566Z,11.73
2019-02-11T10:39:39.049Z,9.23
2019-02-11T10:42:09.387Z,10.10
2019-02-11T10:44:39.031Z,10.77
2019-02-11T10:47:08.971Z,9.33
2019-02-11T10:49:38.686Z,9.87
2019-02-11T10:52:08.307Z,8.60
2019-02-11T10:54:37.998Z,10.07
2019-02-11T10:57:07.686Z,10.03
2019-02-11T10:59:37.377Z,9.30
2019-02-11T11:02:07.506Z,9.47
2019-02-11T11:04:37.190Z,6.97
2019-02-11T11:07:06.854Z,9.07
2019-02-11T11:09:36.553Z,7.30
2019-02-11T11:12:07.648Z,5.83
2019-02-11T11:14:37.329Z,7.73
2019-02-11T11:17:08.658Z,10.83
2019-02-11T11:19:38.889Z,12.40
2019-02-11T11:22:08.643Z,8.80
2019-02-11T11:24:38.321Z,12.07
2019-02-11T11:27:08.046Z,12.77
2019-02-11T11:29:37.704Z,10.03
2019-02-11T11:32:07.510Z,15.63
2019-02-11T11:34:37.170Z,8.63
2019-02-11T11:37:06.880Z,9.90
2019-02-11T11:39:36.574Z,9.07
2019-02-11T11:42:06.222Z,6.53
2019-02-11T11:44:35.893Z,12.83
2019-02-11T11:47:05.614Z,9.93
2019-02-11T11:49:35.330Z,7.47
2019-02-11T11:52:06.003Z,10.53
2019-02-11T11:54:35.745Z,8.93
2019-02-11T11:57:05.539Z,7.50
2019-02-11T11:59:35.166Z,14.17
2019-02-11T12:02:04.929Z,6.80
2019-02-11T12:04:34.610Z,6.23
2019-02-11T12:07:04.423Z,11.13
2019-02-11T12:09:34.083Z,8.87
2019-02-11T12:12:03.864Z,13.63
2019-02-11T12:14:33.555Z,10.70
2019-02-11T12:17:03.899Z,8.27
2019-02-11T12:19:33.640Z,10.90
2019-02-11T12:22:03.480Z,7.47
2019-02-11T12:24:33.140Z,15.87
2019-02-11T12:27:02.876Z,5.43
2019-02-11T12:29:32.597Z,5.80
2019-02-11T12:32:02.226Z,3.97
2019-02-11T12:34:31.976Z,3.73
2019-02-11T12:37:01.610Z,4.40
2019-02-11T12:39:31.296Z,4.70
2019-02-11T12:42:00.953Z,5.13
2019-02-11T12:44:30.683Z,5.67
2019-02-11T12:47:13.051Z,6.37
2019-02-11T12:49:31.799Z,6.43
2019-02-11T12:52:01.488Z,7.30
2019-02-11T12:54:31.213Z,10.27
2019-02-11T12:57:00.854Z,8.00
2019-02-11T12:59:30.689Z,8.97
2019-02-11T13:02:00.398Z,10.20
2019-02-11T13:04:30.101Z,9.47
2019-02-11T13:06:59.828Z,9.10
2019-02-11T13:09:31.230Z,9.90
2019-02-11T13:12:00.984Z,9.03
2019-02-11T13:14:31.367Z,12.40
2019-02-11T13:17:14.152Z,9.87
2019-02-11T13:19:32.403Z,11.10
2019-02-11T13:22:02.121Z,11.73
2019-02-11T13:24:31.768Z,17.87
2019-02-11T13:27:01.439Z,13.57
2019-02-11T13:29:31.240Z,18.50
2019-02-11T13:32:00.947Z,10.17
2019-02-11T13:34:30.670Z,18.97
2019-02-11T13:37:00.408Z,15.67
2019-02-11T13:39:31.145Z,161.03
2019-02-11T13:42:00.904Z,229.43
2019-02-11T13:44:30.607Z,66.00
2019-02-11T13:47:00.326Z,71.10
2019-02-11T13:49:32.818Z,92.30
2019-02-11T13:52:02.563Z,63.03
2019-02-11T13:54:32.675Z,48.07
2019-02-11T13:57:02.361Z,17.13
2019-02-11T13:59:32.025Z,21.23
2019-02-11T14:02:01.685Z,34.23
2019-02-11T14:04:31.949Z,34.03
2019-02-11T14:07:01.638Z,31.53
2019-02-11T14:09:31.357Z,24.93
2019-02-11T14:12:01.046Z,19.40
2019-02-11T14:14:31.614Z,23.20
2019-02-11T14:17:01.255Z,40.67
2019-02-11T14:19:31.031Z,33.93
2019-02-11T14:22:00.705Z,50.27
2019-02-11T14:24:30.411Z,45.93
2019-02-11T14:27:00.066Z,62.17
2019-02-11T14:29:29.851Z,46.33
2019-02-11T14:31:59.565Z,61.57
2019-02-11T14:34:29.241Z,67.47
2019-02-11T14:36:58.916Z,72.07
2019-02-11T14:39:28.631Z,45.80
2019-02-11T14:41:58.293Z,34.93
2019-02-11T14:44:27.988Z,29.90
2019-02-11T14:46:57.694Z,35.63
2019-02-11T14:49:27.343Z,20.63
2019-02-11T14:51:57.008Z,19.73
2019-02-11T14:54:26.647Z,18.57
2019-02-11T14:56:56.342Z,12.47
2019-02-11T14:59:26.055Z,10.47
2019-02-11T15:01:55.782Z,10.80
2019-02-11T15:04:25.456Z,10.53
2019-02-11T15:06:55.139Z,9.47
2019-02-11T15:09:24.918Z,11.37
2019-02-11T15:11:55.099Z,11.60
2019-02-11T15:14:24.875Z,11.80
2019-02-11T15:16:54.603Z,18.33
2019-02-11T15:19:24.266Z,12.30
2019-02-11T15:21:53.958Z,19.47
2019-02-11T15:24:23.702Z,17.23
2019-02-11T15:26:53.414Z,24.80
2019-02-11T15:29:23.609Z,17.00
2019-02-11T15:31:53.314Z,27.83
2019-02-11T15:34:23.026Z,19.53
2019-02-11T15:36:52.779Z,21.53
2019-02-11T15:39:22.474Z,18.50
2019-02-11T15:41:52.171Z,34.43
2019-02-11T15:44:21.887Z,33.67
2019-02-11T15:46:51.550Z,35.77
2019-02-11T15:49:21.270Z,39.80
2019-02-11T15:51:50.936Z,39.43
2019-02-11T15:54:20.591Z,52.40
2019-02-11T15:56:50.338Z,56.17
2019-02-11T15:59:20.027Z,94.63
2019-02-11T16:01:50.439Z,45.63
2019-02-11T16:04:20.154Z,21.57
2019-02-11T16:06:49.856Z,26.27
2019-02-11T16:09:19.690Z,28.63
2019-02-11T16:11:49.442Z,30.50
2019-02-11T16:14:19.111Z,31.87
2019-02-11T16:16:48.816Z,34.53
2019-02-11T16:19:18.567Z,46.57
2019-02-11T16:21:48.326Z,31.77
2019-02-11T16:24:18.070Z,33.53
2019-02-11T16:26:47.808Z,31.40
2019-02-11T16:29:17.543Z,41.27
2019-02-11T16:31:47.267Z,34.73
2019-02-11T16:34:16.928Z,40.77
2019-02-11T16:36:46.635Z,37.63
2019-02-11T16:39:16.351Z,30.87
2019-02-11T16:41:45.990Z,95.67
2019-02-11T16:44:15.698Z,69.93
2019-02-11T16:46:45.429Z,37.90
2019-02-11T16:49:15.123Z,39.90
2019-02-11T16:51:44.801Z,46.87
2019-02-11T16:54:14.476Z,78.83
2019-02-11T16:56:44.119Z,78.20
2019-02-11T16:59:13.835Z,93.13
2019-02-11T17:01:43.570Z,69.07
2019-02-11T17:04:13.800Z,78.80
2019-02-11T17:06:43.499Z,49.77
2019-02-11T17:09:13.183Z,56.33
2019-02-11T17:11:42.811Z,61.03
2019-02-11T17:14:12.501Z,77.93
2019-02-11T17:16:42.401Z,75.40
2019-02-11T17:19:16.413Z,78.07
2019-02-11T17:21:46.080Z,70.33
2019-02-11T17:24:15.873Z,53.90
2019-02-11T17:26:45.530Z,43.80
2019-02-11T17:29:15.209Z,36.87
2019-02-11T17:31:44.938Z,37.07
2019-02-11T17:34:14.577Z,43.33
2019-02-11T17:36:44.267Z,52.70
2019-02-11T17:39:13.906Z,44.40
2019-02-11T17:41:43.551Z,48.30
2019-02-11T17:44:13.426Z,43.70
2019-02-11T17:46:43.080Z,40.33
2019-02-11T17:49:17.868Z,52.93
2019-02-11T17:51:44.083Z,48.43
2019-02-11T17:54:14.087Z,49.67
2019-02-11T17:56:43.727Z,39.10
2019-02-11T17:59:13.350Z,49.43
2019-02-11T18:01:43.148Z,58.40
2019-02-11T18:04:12.790Z,40.80
2019-02-11T18:06:42.466Z,22.63
2019-02-11T18:09:12.174Z,28.10
2019-02-11T18:11:41.825Z,31.73
2019-02-11T18:14:11.589Z,20.57
2019-02-11T18:16:42.256Z,30.23
2019-02-11T18:19:11.959Z,36.07
2019-02-11T18:21:41.640Z,31.50
2019-02-11T18:24:11.372Z,28.77
2019-02-11T18:26:41.056Z,35.13
2019-02-11T18:29:10.775Z,29.30
2019-02-11T18:31:40.458Z,36.10
2019-02-11T18:34:10.221Z,39.07
2019-02-11T18:36:39.931Z,32.83
2019-02-11T18:39:10.378Z,35.57
2019-02-11T18:41:42.010Z,30.23
2019-02-11T18:44:11.694Z,32.00
2019-02-11T18:46:41.365Z,34.67
2019-02-11T18:49:15.153Z,29.90
2019-02-11T18:51:44.789Z,29.03
2019-02-11T18:54:14.432Z,30.37
2019-02-11T18:56:44.137Z,37.97
2019-02-11T18:59:13.803Z,35.57
2019-02-11T19:01:43.466Z,38.63
2019-02-11T19:04:13.117Z,40.33
2019-02-11T19:06:42.798Z,35.20
2019-02-11T19:09:16.092Z,36.97
2019-02-11T19:11:45.795Z,41.03
2019-02-11T19:14:15.430Z,44.83
2019-02-11T19:16:45.128Z,41.30
2019-02-11T19:19:14.775Z,46.07
2019-02-11T19:21:44.421Z,36.73
2019-02-11T19:24:14.099Z,43.33
2019-02-11T19:26:44.242Z,30.57
2019-02-11T19:29:13.914Z,23.37
2019-02-11T19:31:43.571Z,25.97
2019-02-11T19:34:13.301Z,35.30
2019-02-11T19:36:42.973Z,34.97
2019-02-11T19:39:12.626Z,20.17
2019-02-11T19:41:43.146Z,24.97
2019-02-11T19:44:12.930Z,31.93
2019-02-11T19:46:42.670Z,22.83
2019-02-11T19:49:12.423Z,19.60
2019-02-11T19:51:42.124Z,20.57
2019-02-11T19:54:11.802Z,24.20
2019-02-11T19:56:41.527Z,17.63
2019-02-11T19:59:11.166Z,18.17
2019-02-11T20:01:40.830Z,24.07
2019-02-11T20:04:10.477Z,19.43
2019-02-11T20:06:40.191Z,21.27
2019-02-11T20:09:10.052Z,18.60
2019-02-11T20:11:40.010Z,14.73
2019-02-11T20:14:09.670Z,19.57
2019-02-11T20:16:39.375Z,18.60
2019-02-11T20:19:09.109Z,29.07
2019-02-11T20:21:38.787Z,34.43
2019-02-11T20:24:08.551Z,36.23
2019-02-11T20:26:38.202Z,46.40
2019-02-11T20:29:07.889Z,34.53
2019-02-11T20:31:37.664Z,31.10
2019-02-11T20:34:07.298Z,27.83
2019-02-11T20:36:36.930Z,21.20
2019-02-11T20:39:07.595Z,20.93
2019-02-11T20:41:37.306Z,23.87
2019-02-11T20:44:07.598Z,33.53
2019-02-11T20:46:37.246Z,23.43
2019-02-11T20:49:06.967Z,22.33
2019-02-11T20:51:36.658Z,30.53
2019-02-11T20:54:06.427Z,48.50
2019-02-11T20:56:36.159Z,22.33
2019-02-11T20:59:05.799Z,19.97
2019-02-11T21:01:35.458Z,19.27
2019-02-11T21:04:05.123Z,15.50
2019-02-11T21:06:34.835Z,19.13
2019-02-11T21:09:05.986Z,15.67
2019-02-11T21:11:35.638Z,12.13
2019-02-11T21:14:05.305Z,15.67
2019-02-11T21:16:34.960Z,12.50
2019-02-11T21:19:04.614Z,13.20
2019-02-11T21:21:34.527Z,18.40
2019-02-11T21:24:04.348Z,14.07
2019-02-11T21:26:34.020Z,15.83
2019-02-11T21:29:05.502Z,17.97
2019-02-11T21:31:36.923Z,12.30
2019-02-11T21:34:06.897Z,11.33
2019-02-11T21:36:36.534Z,11.30
2019-02-11T21:39:08.023Z,11.30
2019-02-11T21:41:38.133Z,12.23
2019-02-11T21:44:07.805Z,12.50
2019-02-11T21:46:37.446Z,13.43
2019-02-11T21:49:07.163Z,16.30
2019-02-11T21:51:36.818Z,12.57
2019-02-11T21:54:06.587Z,12.87
2019-02-11T21:56:36.307Z,12.43
2019-02-11T21:59:05.922Z,11.93
2019-02-11T22:01:35.620Z,13.50
2019-02-11T22:04:05.308Z,15.37
2019-02-11T22:06:35.474Z,16.83
2019-02-11T22:09:09.311Z,13.37
2019-02-11T22:11:42.295Z,17.57
2019-02-11T22:14:11.938Z,23.47
2019-02-11T22:16:42.423Z,21.87
2019-02-11T22:19:12.177Z,19.73
2019-02-11T22:21:41.849Z,16.80
2019-02-11T22:24:11.536Z,15.43
2019-02-11T22:26:41.201Z,13.10
2019-02-11T22:29:10.838Z,11.73
2019-02-11T22:31:40.603Z,13.60
2019-02-11T22:34:10.242Z,12.27
2019-02-11T22:36:39.871Z,12.57
2019-02-11T22:39:10.174Z,13.20
2019-02-11T22:41:39.913Z,10.27
2019-02-11T22:44:09.609Z,13.43
2019-02-11T22:46:39.321Z,12.53
2019-02-11T22:49:08.955Z,11.47
2019-02-11T22:51:38.601Z,13.17
2019-02-11T22:54:08.294Z,12.63
2019-02-11T22:56:37.942Z,13.20
2019-02-11T22:59:07.579Z,14.50
2019-02-11T23:01:37.305Z,14.00
2019-02-11T23:04:06.973Z,14.73
2019-02-11T23:06:36.594Z,11.83
2019-02-11T23:09:12.034Z,12.87
2019-02-11T23:11:41.695Z,13.07
2019-02-11T23:14:11.798Z,12.40
2019-02-11T23:16:41.931Z,12.23
2019-02-11T23:19:11.593Z,16.07
2019-02-11T23:21:41.313Z,14.70
2019-02-11T23:24:10.962Z,13.60
2019-02-11T23:26:42.123Z,13.13
2019-02-11T23:29:12.593Z,14.70
2019-02-11T23:31:42.273Z,13.77
2019-02-11T23:34:11.905Z,15.03
2019-02-11T23:36:41.590Z,12.30
2019-02-11T23:39:17.689Z,13.83
2019-02-11T23:41:47.373Z,14.30
2019-02-11T23:44:17.031Z,15.60
2019-02-11T23:46:46.779Z,15.10
2019-02-11T23:49:16.497Z,16.17
2019-02-11T23:51:46.145Z,16.27
2019-02-11T23:54:15.786Z,9.73
2019-02-11T23:56:45.445Z,11.67
2019-02-11T23:59:15.085Z,11.90
